createdAt,value
2018-04-08T00:00:49.540Z,66.40
2018-04-08T00:03:17.630Z,66.60
2018-04-08T00:05:46.078Z,66.90
2018-04-08T00:08:14.589Z,66.90
2018-04-08T00:10:42.726Z,67.80
2018-04-08T00:13:10.795Z,67.70
2018-04-08T00:15:39.018Z,68.10
2018-04-08T00:18:07.080Z,68.30
2018-04-08T00:20:35.146Z,68.50
2018-04-08T00:23:03.425Z,68.50
2018-04-08T00:25:33.129Z,68.90
2018-04-08T00:28:01.381Z,69.00
2018-04-08T00:30:29.584Z,69.40
2018-04-08T00:32:57.650Z,69.90
2018-04-08T00:35:25.784Z,70.40
2018-04-08T00:37:54.200Z,70.90
2018-04-08T00:40:22.275Z,71.10
2018-04-08T00:42:50.316Z,71.30
2018-04-08T00:45:19.540Z,71.30
2018-04-08T00:47:47.729Z,72.00
2018-04-08T00:50:15.911Z,71.50
2018-04-08T00:52:44.678Z,72.80
2018-04-08T00:55:12.874Z,72.60
2018-04-08T00:57:41.634Z,73.80
2018-04-08T01:00:09.612Z,73.70
2018-04-08T01:02:37.678Z,74.00
2018-04-08T01:05:06.169Z,74.20
2018-04-08T01:07:34.436Z,74.60
2018-04-08T01:10:02.710Z,74.60
2018-04-08T01:12:30.979Z,74.70
2018-04-08T01:14:59.060Z,74.80
2018-04-08T01:17:27.126Z,75.40
2018-04-08T01:19:55.299Z,75.80
2018-04-08T01:22:23.475Z,76.30
2018-04-08T01:24:51.954Z,76.40
2018-04-08T01:27:20.578Z,77.00
2018-04-08T01:29:48.716Z,77.20
2018-04-08T01:32:16.780Z,77.80
2018-04-08T01:34:45.160Z,77.90
2018-04-08T01:37:13.715Z,78.40
2018-04-08T01:39:41.900Z,78.70
2018-04-08T01:42:10.395Z,79.40
2018-04-08T01:44:38.647Z,79.60
2018-04-08T01:47:06.845Z,79.70
2018-04-08T01:49:34.914Z,80.00
2018-04-08T01:52:03.395Z,79.80
2018-04-08T01:54:31.665Z,79.80
2018-04-08T01:56:59.845Z,79.60
2018-04-08T01:59:28.020Z,80.00
2018-04-08T02:01:56.499Z,79.80
2018-04-08T02:04:24.809Z,79.90
2018-04-08T02:06:53.766Z,79.80
2018-04-08T02:09:22.245Z,79.80
2018-04-08T02:11:51.450Z,79.90
2018-04-08T02:14:19.900Z,80.20
2018-04-08T02:16:47.995Z,81.30
2018-04-08T02:19:16.253Z,83.60
2018-04-08T02:21:44.520Z,85.30
2018-04-08T02:24:12.824Z,86.20
2018-04-08T02:26:40.900Z,86.30
2018-04-08T02:29:09.041Z,85.80
2018-04-08T02:31:37.346Z,86.40
2018-04-08T02:34:05.660Z,89.10
2018-04-08T02:36:33.812Z,88.90
2018-04-08T02:39:03.052Z,90.20
2018-04-08T02:41:31.166Z,90.10
2018-04-08T02:43:59.401Z,90.30
2018-04-08T02:46:27.676Z,90.50
2018-04-08T02:48:55.997Z,90.90
2018-04-08T02:51:24.125Z,91.20
2018-04-08T02:53:52.647Z,91.60
2018-04-08T02:56:21.736Z,92.00
2018-04-08T02:58:50.115Z,92.00
2018-04-08T03:01:18.385Z,92.30
2018-04-08T03:03:46.565Z,92.30
2018-04-08T03:06:14.946Z,92.40
2018-04-08T03:08:43.430Z,92.50
2018-04-08T03:11:11.688Z,93.20
2018-04-08T03:13:39.961Z,93.70
2018-04-08T03:16:08.521Z,94.00
2018-04-08T03:18:36.746Z,94.30
2018-04-08T03:21:04.905Z,94.50
2018-04-08T03:23:33.245Z,94.60
2018-04-08T03:26:01.324Z,94.90
2018-04-08T03:28:29.400Z,95.10
2018-04-08T03:30:57.766Z,95.10
2018-04-08T03:33:25.880Z,95.40
2018-04-08T03:35:53.845Z,95.70
2018-04-08T03:38:21.916Z,96.00
2018-04-08T03:40:50.060Z,96.00
2018-04-08T03:43:18.259Z,95.80
2018-04-08T03:45:46.542Z,96.00
2018-04-08T03:48:14.895Z,96.20
2018-04-08T03:50:43.085Z,96.10
2018-04-08T03:53:11.471Z,96.20
2018-04-08T03:55:39.509Z,96.40
2018-04-08T03:58:07.924Z,96.60
2018-04-08T04:00:35.950Z,96.80
2018-04-08T04:03:04.055Z,96.90
2018-04-08T04:05:32.030Z,97.10
2018-04-08T04:08:00.096Z,97.30
2018-04-08T04:10:28.275Z,97.30
2018-04-08T04:12:56.601Z,97.30
2018-04-08T04:15:24.589Z,97.10
2018-04-08T04:17:52.585Z,96.70
2018-04-08T04:20:32.637Z,96.70
2018-04-08T04:23:12.380Z,96.60
2018-04-08T04:25:52.946Z,96.70
2018-04-08T04:28:23.160Z,97.40
2018-04-08T04:30:51.135Z,97.40
2018-04-08T04:33:19.424Z,97.60
2018-04-08T04:35:47.685Z,97.70
2018-04-08T04:38:16.136Z,97.60
2018-04-08T04:40:44.644Z,97.60
2018-04-08T04:43:12.719Z,97.50
2018-04-08T04:45:40.695Z,97.40
2018-04-08T04:48:09.165Z,97.00
2018-04-08T04:50:37.140Z,96.70
2018-04-08T04:53:05.280Z,96.40
2018-04-08T04:55:33.602Z,96.60
2018-04-08T04:58:01.660Z,96.60
2018-04-08T05:00:29.685Z,96.50
2018-04-08T05:02:57.800Z,96.30
2018-04-08T05:05:25.841Z,95.90
2018-04-08T05:07:54.251Z,96.20
2018-04-08T05:10:22.408Z,96.30
2018-04-08T05:12:50.594Z,96.70
2018-04-08T05:15:19.044Z,96.60
2018-04-08T05:17:47.146Z,96.50
2018-04-08T05:20:15.315Z,96.50
2018-04-08T05:22:43.658Z,96.40
2018-04-08T05:25:12.385Z,96.00
2018-04-08T05:27:40.688Z,95.60
2018-04-08T05:30:09.297Z,95.20
2018-04-08T05:32:37.819Z,95.10
2018-04-08T05:35:06.210Z,94.40
2018-04-08T05:37:34.849Z,93.90
2018-04-08T05:40:03.365Z,93.30
2018-04-08T05:42:31.705Z,92.80
2018-04-08T05:44:59.710Z,92.10
2018-04-08T05:47:28.074Z,91.80
2018-04-08T05:49:56.385Z,91.10
2018-04-08T05:52:24.644Z,90.90
2018-04-08T05:54:52.886Z,90.40
2018-04-08T05:57:20.990Z,89.50
2018-04-08T05:59:49.160Z,87.60
2018-04-08T06:02:17.241Z,86.60
2018-04-08T06:04:45.399Z,84.90
2018-04-08T06:07:13.376Z,84.00
2018-04-08T06:09:41.344Z,83.10
2018-04-08T06:12:09.319Z,81.10
2018-04-08T06:14:37.696Z,79.60
2018-04-08T06:17:05.765Z,78.00
2018-04-08T06:19:33.935Z,76.60
2018-04-08T06:22:02.116Z,75.00
2018-04-08T06:24:30.485Z,73.70
2018-04-08T06:26:58.658Z,70.70
2018-04-08T06:29:26.631Z,68.50
2018-04-08T06:31:54.804Z,66.10
2018-04-08T06:34:22.974Z,64.70
2018-04-08T06:36:50.939Z,62.20
2018-04-08T06:39:18.989Z,59.90
2018-04-08T06:41:47.204Z,59.30
2018-04-08T06:44:15.465Z,57.90
2018-04-08T06:46:43.335Z,56.60
2018-04-08T06:49:11.492Z,55.10
2018-04-08T06:51:39.676Z,53.80
2018-04-08T06:54:07.710Z,53.10
2018-04-08T06:56:35.760Z,53.30
2018-04-08T06:59:04.210Z,53.20
2018-04-08T07:01:32.372Z,54.20
2018-04-08T07:04:00.340Z,54.00
2018-04-08T07:06:28.509Z,54.00
2018-04-08T07:08:56.784Z,54.10
2018-04-08T07:11:24.655Z,54.00
2018-04-08T07:13:52.717Z,54.20
2018-04-08T07:16:20.691Z,54.10
2018-04-08T07:18:48.561Z,54.00
2018-04-08T07:21:16.626Z,53.30
2018-04-08T07:23:44.587Z,52.00
2018-04-08T07:26:12.669Z,51.80
2018-04-08T07:28:41.184Z,52.20
2018-04-08T07:31:10.036Z,53.10
2018-04-08T07:33:38.417Z,53.00
2018-04-08T07:36:06.703Z,53.10
2018-04-08T07:38:34.659Z,53.40
2018-04-08T07:41:02.892Z,54.00
2018-04-08T07:43:30.907Z,53.90
2018-04-08T07:45:58.974Z,52.70
2018-04-08T07:48:27.241Z,52.80
2018-04-08T07:50:55.219Z,52.30
2018-04-08T07:53:23.290Z,51.30
2018-04-08T07:55:51.130Z,49.40
2018-04-08T07:58:19.434Z,49.20
2018-04-08T08:00:47.301Z,49.50
2018-04-08T08:03:15.456Z,48.80
2018-04-08T08:05:43.446Z,47.20
2018-04-08T08:08:11.408Z,47.00
2018-04-08T08:10:39.288Z,47.80
2018-04-08T08:13:07.672Z,48.10
2018-04-08T08:15:36.851Z,48.50
2018-04-08T08:18:04.931Z,48.50
2018-04-08T08:20:33.371Z,49.10
2018-04-08T08:23:01.511Z,49.50
2018-04-08T08:25:32.931Z,49.00
2018-04-08T08:28:01.512Z,48.80
2018-04-08T08:30:29.792Z,48.40
2018-04-08T08:32:57.852Z,48.40
2018-04-08T08:35:26.151Z,46.50
2018-04-08T08:37:55.092Z,44.70
2018-04-08T08:40:24.035Z,44.50
2018-04-08T08:42:52.811Z,44.90
2018-04-08T08:45:21.491Z,44.90
2018-04-08T08:47:49.852Z,45.20
2018-04-08T08:50:18.331Z,46.80
2018-04-08T08:52:46.411Z,46.80
2018-04-08T08:55:14.591Z,45.60
2018-04-08T08:57:43.852Z,44.00
2018-04-08T09:00:19.218Z,44.00
2018-04-08T09:02:47.411Z,45.00
2018-04-08T09:05:15.821Z,43.50
2018-04-08T09:07:44.791Z,43.10
2018-04-08T09:10:14.091Z,42.10
2018-04-08T09:12:43.692Z,41.90
2018-04-08T09:15:12.032Z,41.80
2018-04-08T09:17:40.351Z,42.60
2018-04-08T09:20:11.293Z,43.20
2018-04-08T09:22:54.311Z,42.60
2018-04-08T09:25:24.212Z,42.40
2018-04-08T09:27:52.711Z,42.30
2018-04-08T09:30:21.695Z,43.30
2018-04-08T09:32:49.871Z,43.20
2018-04-08T09:35:17.932Z,43.00
2018-04-08T09:37:46.111Z,43.20
2018-04-08T09:40:14.412Z,42.00
2018-04-08T09:42:43.552Z,40.90
2018-04-08T09:45:11.871Z,40.80
2018-04-08T09:47:41.142Z,41.90
2018-04-08T09:50:09.330Z,41.90
2018-04-08T09:52:37.514Z,41.60
2018-04-08T09:55:06.629Z,41.70
2018-04-08T09:57:38.571Z,41.70
2018-04-08T10:00:07.752Z,41.80
2018-04-08T10:02:36.331Z,41.70
2018-04-08T10:05:04.652Z,39.40
2018-04-08T10:07:34.012Z,39.10
2018-04-08T10:10:02.392Z,39.10
2018-04-08T10:12:30.772Z,39.40
2018-04-08T10:14:59.272Z,38.30
2018-04-08T10:17:28.132Z,37.30
2018-04-08T10:19:57.476Z,37.30
2018-04-08T10:22:25.832Z,38.20
2018-04-08T10:24:54.131Z,39.50
2018-04-08T10:27:23.092Z,39.90
2018-04-08T10:29:51.452Z,39.90
2018-04-08T10:32:20.372Z,38.80
2018-04-08T10:34:49.360Z,38.50
2018-04-08T10:37:17.731Z,38.10
2018-04-08T10:42:55.272Z,39.30
2018-04-08T10:45:34.172Z,39.30
2018-04-08T10:57:14.871Z,36.80
2018-04-08T10:59:43.163Z,36.90
2018-04-08T11:02:12.375Z,38.30
2018-04-08T11:04:41.176Z,38.20
2018-04-08T11:07:10.119Z,37.60
2018-04-08T11:09:40.056Z,37.50
2018-04-08T11:12:11.511Z,36.20
2018-04-08T11:14:40.597Z,34.90
2018-04-08T11:17:09.562Z,34.80
2018-04-08T11:19:40.359Z,34.10
2018-04-08T11:22:09.297Z,33.30
2018-04-08T11:24:37.951Z,32.60
2018-04-08T11:27:14.991Z,32.00
2018-04-08T11:29:47.376Z,35.40
2018-04-08T11:32:16.767Z,35.30
2018-04-08T11:34:47.920Z,34.40
2018-04-08T11:37:23.951Z,33.70
2018-04-08T11:39:54.767Z,33.00
2018-04-08T11:42:30.863Z,32.50
2018-04-08T11:45:02.176Z,32.50
2018-04-08T11:47:31.151Z,32.90
2018-04-08T11:49:59.713Z,32.90
2018-04-08T11:52:28.901Z,34.10
2018-04-08T11:54:58.357Z,33.00
2018-04-08T11:57:27.167Z,33.00
2018-04-08T11:59:55.791Z,33.00
2018-04-08T12:02:24.248Z,32.50
2018-04-08T12:04:53.719Z,32.20
2018-04-08T12:07:22.071Z,32.20
2018-04-08T12:09:50.807Z,32.80
2018-04-08T12:12:19.920Z,33.60
2018-04-08T12:14:48.895Z,33.60
2018-04-08T12:17:17.392Z,34.10
2018-04-08T12:19:46.479Z,32.90
2018-04-08T12:22:15.599Z,33.10
2018-04-08T12:24:43.954Z,33.00
2018-04-08T12:27:13.351Z,32.80
2018-04-08T12:29:42.703Z,32.80
2018-04-08T12:32:11.031Z,33.10
2018-04-08T12:34:40.679Z,34.00
2018-04-08T12:37:09.409Z,35.60
2018-04-08T12:39:37.599Z,36.60
2018-04-08T12:42:06.495Z,37.30
2018-04-08T12:44:35.807Z,38.00
2018-04-08T12:47:04.767Z,38.70
2018-04-08T12:49:32.950Z,38.70
2018-04-08T12:52:02.759Z,39.60
2018-04-08T12:54:31.958Z,39.60
2018-04-08T12:57:00.135Z,39.50
2018-04-08T12:59:29.512Z,38.40
2018-04-08T13:01:58.050Z,38.40
2018-04-08T13:04:27.831Z,38.00
2018-04-08T13:06:58.246Z,39.40
2018-04-08T13:09:26.615Z,39.20
2018-04-08T13:11:54.935Z,39.40
2018-04-08T13:14:23.999Z,40.40
2018-04-08T13:16:53.271Z,40.40
2018-04-08T13:19:22.567Z,41.10
2018-04-08T13:21:53.447Z,41.40
2018-04-08T13:24:22.631Z,41.80
2018-04-08T13:26:51.110Z,42.20
2018-04-08T13:29:19.854Z,43.10
2018-04-08T13:31:50.659Z,42.00
2018-04-08T13:34:19.535Z,42.20
2018-04-08T13:36:49.951Z,42.70
2018-04-08T13:39:22.015Z,42.70
2018-04-08T13:41:52.959Z,42.10
2018-04-08T13:47:19.891Z,42.20
2018-04-08T13:49:53.871Z,42.00
2018-04-08T13:52:22.886Z,42.00
2018-04-08T13:54:51.780Z,42.40
2018-04-08T13:57:21.444Z,42.60
2018-04-08T13:59:51.684Z,42.60
2018-04-08T14:02:22.263Z,42.60
2018-04-08T14:04:50.724Z,42.20
2018-04-08T14:07:20.068Z,42.00
2018-04-08T14:09:50.221Z,42.00
2018-04-08T14:12:18.820Z,41.70
2018-04-08T14:14:48.132Z,42.10
2018-04-08T14:17:17.295Z,42.30
2018-04-08T14:19:45.492Z,42.20
2018-04-08T14:22:16.052Z,42.40
2018-04-08T14:24:44.549Z,42.30
2018-04-08T14:27:12.990Z,42.30
2018-04-08T14:29:41.860Z,41.80
2018-04-08T14:32:10.231Z,41.70
2018-04-08T14:34:39.252Z,42.00
2018-04-08T14:37:08.885Z,41.50
2018-04-08T14:39:39.684Z,41.50
2018-04-08T14:55:14.372Z,40.30
2018-04-08T14:57:43.172Z,42.90
2018-04-08T15:00:11.572Z,42.50
2018-04-08T15:02:41.268Z,41.80
2018-04-08T15:05:11.382Z,41.70
2018-04-08T15:07:39.781Z,41.40
2018-04-08T15:10:08.771Z,41.60
2018-04-08T15:12:38.165Z,41.90
2018-04-08T15:15:07.350Z,42.70
2018-04-08T15:17:36.051Z,41.90
2018-04-08T15:20:05.252Z,42.40
2018-04-08T15:22:34.740Z,42.40
2018-04-08T15:25:03.508Z,42.70
2018-04-08T15:27:33.700Z,42.10
2018-04-08T15:30:01.926Z,41.60
2018-04-08T15:32:31.124Z,42.50
2018-04-08T15:34:59.412Z,42.30
2018-04-08T15:37:28.473Z,42.80
2018-04-08T15:39:56.868Z,42.70
2018-04-08T15:42:25.132Z,42.90
2018-04-08T15:44:53.830Z,42.90
2018-04-08T15:47:21.988Z,43.10
2018-04-08T15:49:50.292Z,43.20
2018-04-08T15:52:19.699Z,43.60
2018-04-08T15:54:49.092Z,43.20
2018-04-08T15:57:18.180Z,43.40
2018-04-08T15:59:47.189Z,44.00
2018-04-08T16:02:16.389Z,43.40
2018-04-08T16:04:45.572Z,43.20
2018-04-08T16:07:15.060Z,43.50
2018-04-08T16:09:44.868Z,43.50
2018-04-08T16:12:12.965Z,43.70
2018-04-08T16:14:42.569Z,44.30
2018-04-08T16:17:11.492Z,44.60
2018-04-08T16:19:41.172Z,44.60
2018-04-08T16:22:11.140Z,45.00
2018-04-08T16:24:40.692Z,45.00
2018-04-08T16:27:09.380Z,45.10
2018-04-08T16:29:38.964Z,44.90
2018-04-08T16:32:07.492Z,44.90
2018-04-08T16:34:37.412Z,45.40
2018-04-08T16:37:07.981Z,45.40
2018-04-08T16:39:37.621Z,45.40
2018-04-08T16:42:06.084Z,45.60
2018-04-08T16:44:37.300Z,45.30
2018-04-08T16:47:06.814Z,45.00
2018-04-08T16:49:36.900Z,45.00
2018-04-08T16:52:05.220Z,45.10
2018-04-08T16:54:35.141Z,45.30
2018-04-08T16:57:04.331Z,45.90
2018-04-08T16:59:33.972Z,45.90
2018-04-08T17:02:03.332Z,45.80
2018-04-08T17:04:32.900Z,45.90
2018-04-08T17:07:01.332Z,46.00
2018-04-08T17:09:29.712Z,46.10
2018-04-08T17:11:57.916Z,46.20
2018-04-08T17:14:28.133Z,46.90
2018-04-08T17:16:56.567Z,47.00
2018-04-08T17:19:24.788Z,47.00
2018-04-08T17:21:54.085Z,47.30
2018-04-08T17:24:23.068Z,47.40
2018-04-08T17:26:54.932Z,47.60
2018-04-08T17:29:23.908Z,47.60
2018-04-08T17:31:53.125Z,47.70
2018-04-08T17:34:22.500Z,48.10
2018-04-08T17:36:51.093Z,48.10
2018-04-08T17:39:19.989Z,48.40
2018-04-08T17:41:49.188Z,48.80
2018-04-08T17:44:17.668Z,48.70
2018-04-08T17:46:46.420Z,49.50
2018-04-08T17:49:15.668Z,49.10
2018-04-08T17:51:46.662Z,49.60
2018-04-08T17:54:20.900Z,49.90
2018-04-08T17:56:56.348Z,50.20
2018-04-08T17:59:26.071Z,50.50
2018-04-08T18:01:58.020Z,50.70
2018-04-08T18:04:32.294Z,50.60
2018-04-08T18:07:02.324Z,50.90
2018-04-08T18:09:31.524Z,51.90
2018-04-08T18:12:02.185Z,50.90
2018-04-08T18:14:36.804Z,51.00
2018-04-08T18:17:06.325Z,51.10
2018-04-08T18:19:40.725Z,51.20
2018-04-08T18:22:18.629Z,51.20
2018-04-08T18:24:55.300Z,51.10
2018-04-08T18:27:23.892Z,51.30
2018-04-08T18:29:52.483Z,51.20
2018-04-08T18:32:22.664Z,51.30
2018-04-08T18:34:52.180Z,50.90
2018-04-08T18:37:24.421Z,51.20
2018-04-08T18:40:01.781Z,51.30
2018-04-08T18:42:31.780Z,51.10
2018-04-08T18:45:02.036Z,51.00
2018-04-08T18:47:34.903Z,51.30
2018-04-08T18:50:05.940Z,51.60
2018-04-08T18:52:37.375Z,51.70
2018-04-08T18:55:06.676Z,51.60
2018-04-08T18:57:36.100Z,52.00
2018-04-08T19:00:05.062Z,52.00
2018-04-08T19:02:33.771Z,52.10
2018-04-08T19:05:03.396Z,52.40
2018-04-08T19:07:33.573Z,53.40
2018-04-08T19:26:22.676Z,56.70
2018-04-08T19:28:51.303Z,56.70
2018-04-08T19:31:22.660Z,56.60
2018-04-08T19:33:55.205Z,56.80
2018-04-08T19:36:28.245Z,56.90
2018-04-08T19:38:59.965Z,57.00
2018-04-08T19:41:30.783Z,57.10
2018-04-08T19:44:09.076Z,57.30
2018-04-08T19:46:39.620Z,57.20
2018-04-08T19:49:14.980Z,57.30
2018-04-08T19:51:45.941Z,57.40
2018-04-08T19:54:18.325Z,57.40
2018-04-08T19:56:49.684Z,58.00
2018-04-08T20:01:57.893Z,58.20
2018-04-08T20:04:27.193Z,58.20
2018-04-08T20:06:56.596Z,58.30
2018-04-08T20:09:26.463Z,58.30
2018-04-08T20:11:58.021Z,58.30
2018-04-08T20:14:27.396Z,58.50
2018-04-08T20:16:58.404Z,58.70
2018-04-08T20:19:34.788Z,58.70
2018-04-08T20:22:05.413Z,59.80
2018-04-08T20:24:36.338Z,59.30
2018-04-08T20:27:05.824Z,58.80
2018-04-08T20:29:36.421Z,58.80
2018-04-08T20:32:05.476Z,58.70
2018-04-08T20:34:34.964Z,60.80
2018-04-08T20:37:03.458Z,60.80
2018-04-08T20:39:31.759Z,61.90
2018-04-08T20:42:00.595Z,61.90
2018-04-08T20:44:28.786Z,61.80
2018-04-08T20:46:56.964Z,63.30
2018-04-08T20:49:25.239Z,63.80
2018-04-08T20:51:53.206Z,64.10
2018-04-08T20:54:21.585Z,63.60
2018-04-08T20:56:49.775Z,64.60
2018-04-08T20:59:19.033Z,66.30
2018-04-08T21:01:47.333Z,66.20
2018-04-08T21:04:15.404Z,66.60
2018-04-08T21:06:43.811Z,66.40
2018-04-08T21:09:12.776Z,67.30
2018-04-08T21:11:41.670Z,67.20
2018-04-08T21:14:09.936Z,66.90
2018-04-08T21:16:38.419Z,68.20
2018-04-08T21:19:06.470Z,69.00
2018-04-08T21:21:34.867Z,69.80
2018-04-08T21:24:03.329Z,69.50
2018-04-08T21:26:31.829Z,70.10
2018-04-08T21:29:00.208Z,68.20
2018-04-08T21:31:28.790Z,67.20
2018-04-08T21:33:57.338Z,66.60
2018-04-08T21:36:25.587Z,66.50
2018-04-08T21:38:53.732Z,66.40
2018-04-08T21:41:21.767Z,66.40
2018-04-08T21:43:49.966Z,66.00
2018-04-08T21:46:18.035Z,66.00
2018-04-08T21:48:47.140Z,65.80
2018-04-08T21:51:15.099Z,65.80
2018-04-08T21:53:43.178Z,66.00
2018-04-08T21:56:11.248Z,66.40
2018-04-08T21:58:39.104Z,66.30
2018-04-08T22:01:07.387Z,66.00
2018-04-08T22:03:35.554Z,65.70
2018-04-08T22:06:04.040Z,65.90
2018-04-08T22:08:32.223Z,65.80
2018-04-08T22:11:00.491Z,66.00
2018-04-08T22:13:28.871Z,66.70
2018-04-08T22:15:57.254Z,67.00
2018-04-08T22:18:25.454Z,67.40
2018-04-08T22:20:54.510Z,68.40
2018-04-08T22:23:22.567Z,68.40
2018-04-08T22:25:51.578Z,69.20
2018-04-08T22:28:20.292Z,69.00
2018-04-08T22:30:49.046Z,69.60
2018-04-08T22:33:17.238Z,69.60
2018-04-08T22:35:46.325Z,69.70
2018-04-08T22:38:14.996Z,69.60
2018-04-08T22:40:43.481Z,69.50
2018-04-08T22:43:11.665Z,70.20
2018-04-08T22:45:39.805Z,70.20
2018-04-08T22:48:07.883Z,70.50
2018-04-08T22:50:36.278Z,70.60
2018-04-08T22:53:04.349Z,70.80
2018-04-08T22:55:32.318Z,71.00
2018-04-08T22:58:00.695Z,70.80
2018-04-08T23:00:29.219Z,70.30
2018-04-08T23:02:57.460Z,70.60
2018-04-08T23:05:25.725Z,69.80
2018-04-08T23:07:54.293Z,70.20
2018-04-08T23:10:22.775Z,69.80
2018-04-08T23:12:50.945Z,70.00
2018-04-08T23:15:19.142Z,70.00
2018-04-08T23:17:47.516Z,69.80
2018-04-08T23:20:15.816Z,70.00
2018-04-08T23:22:44.176Z,70.00
2018-04-08T23:25:12.427Z,70.20
2018-04-08T23:27:40.720Z,70.40
2018-04-08T23:30:08.996Z,70.70
2018-04-08T23:32:37.303Z,71.20
2018-04-08T23:35:06.693Z,71.40
2018-04-08T23:37:35.670Z,73.00
2018-04-08T23:40:03.945Z,73.00
2018-04-08T23:42:32.115Z,73.30
2018-04-08T23:45:00.515Z,73.60
2018-04-08T23:47:29.398Z,74.40
2018-04-08T23:49:57.636Z,74.30
2018-04-08T23:52:25.730Z,74.60
2018-04-08T23:54:54.191Z,74.70
2018-04-08T23:57:22.488Z,74.80
2018-04-08T23:59:51.280Z,75.90
